createdAt,value
2023-03-17T00:00:25.369Z,8.18
2023-03-17T00:02:54.057Z,6.47
2023-03-17T00:05:23.724Z,6.57
2023-03-17T00:07:53.109Z,6.63
2023-03-17T00:10:22.729Z,6.82
2023-03-17T00:12:55.133Z,5.57
2023-03-17T00:15:23.208Z,6.63
2023-03-17T00:17:50.479Z,6.15
2023-03-17T00:20:25.476Z,4.32
2023-03-17T00:22:53.004Z,5.05
2023-03-17T00:25:23.407Z,4.60
2023-03-17T00:27:50.994Z,3.88
2023-03-17T00:30:19.198Z,6.88
2023-03-17T00:32:46.699Z,5.15
2023-03-17T00:35:19.637Z,4.47
2023-03-17T00:37:48.371Z,5.30
2023-03-17T00:40:17.708Z,4.95
2023-03-17T00:42:44.975Z,6.85
2023-03-17T00:45:12.638Z,4.70
2023-03-17T00:47:40.404Z,6.32
2023-03-17T00:50:11.534Z,6.43
2023-03-17T00:52:39.263Z,3.70
2023-03-17T00:55:09.899Z,6.53
2023-03-17T00:57:37.821Z,3.70
2023-03-17T01:00:06.636Z,7.20
2023-03-17T01:02:33.664Z,5.50
2023-03-17T01:05:06.255Z,5.18
2023-03-17T01:07:35.123Z,6.30
2023-03-17T01:10:02.207Z,4.07
2023-03-17T01:12:31.199Z,3.53
2023-03-17T01:14:58.135Z,3.55
2023-03-17T01:17:25.172Z,3.75
2023-03-17T01:19:52.558Z,6.63
2023-03-17T01:22:19.562Z,4.32
2023-03-17T01:24:47.842Z,4.97
2023-03-17T01:27:14.796Z,5.82
2023-03-17T01:29:43.858Z,4.75
2023-03-17T01:32:11.177Z,5.55
2023-03-17T01:34:38.115Z,8.65
2023-03-17T01:37:05.144Z,6.30
2023-03-17T01:39:33.488Z,6.45
2023-03-17T01:42:01.430Z,5.30
2023-03-17T01:44:28.563Z,4.22
2023-03-17T01:46:56.897Z,4.18
2023-03-17T01:49:27.967Z,8.70
2023-03-17T01:52:02.658Z,8.07
2023-03-17T01:54:35.070Z,3.88
2023-03-17T01:57:09.313Z,5.30
2023-03-17T01:59:40.974Z,5.03
2023-03-17T02:02:12.572Z,3.58
2023-03-17T02:04:41.056Z,4.15
2023-03-17T02:07:08.245Z,5.03
2023-03-17T02:09:38.026Z,3.70
2023-03-17T02:12:07.004Z,4.65
2023-03-17T02:14:34.262Z,5.80
2023-03-17T02:17:05.359Z,5.55
2023-03-17T02:19:34.263Z,5.65
2023-03-17T02:22:02.660Z,8.00
2023-03-17T02:24:33.632Z,4.10
2023-03-17T02:27:05.742Z,4.28
2023-03-17T02:29:35.001Z,3.30
2023-03-17T02:32:02.081Z,3.78
2023-03-17T02:34:31.501Z,3.30
2023-03-17T02:36:58.756Z,11.48
2023-03-17T02:39:27.552Z,4.03
2023-03-17T02:41:54.708Z,4.60
2023-03-17T02:44:22.006Z,6.45
2023-03-17T02:46:48.939Z,3.42
2023-03-17T02:49:16.615Z,5.63
2023-03-17T02:51:43.640Z,3.58
2023-03-17T02:54:10.873Z,5.60
2023-03-17T02:56:39.287Z,3.63
2023-03-17T02:59:09.677Z,4.30
2023-03-17T03:01:39.720Z,2.80
2023-03-17T03:04:07.212Z,5.57
2023-03-17T03:06:34.242Z,5.03
2023-03-17T03:09:01.379Z,3.80
2023-03-17T03:11:29.409Z,3.00
2023-03-17T03:13:57.686Z,3.00
2023-03-17T03:16:24.689Z,5.30
2023-03-17T03:18:51.634Z,3.33
2023-03-17T03:21:18.917Z,2.15
2023-03-17T03:23:45.952Z,5.40
2023-03-17T03:26:12.926Z,3.15
2023-03-17T03:28:40.658Z,5.90
2023-03-17T03:31:09.263Z,3.28
2023-03-17T03:33:36.572Z,2.78
2023-03-17T03:36:03.744Z,4.47
2023-03-17T03:38:30.886Z,3.08
2023-03-17T03:40:57.826Z,4.63
2023-03-17T03:43:24.781Z,3.78
2023-03-17T03:45:52.185Z,4.97
2023-03-17T03:48:24.246Z,4.93
2023-03-17T03:50:55.252Z,6.10
2023-03-17T03:53:22.562Z,4.13
2023-03-17T03:55:49.466Z,5.95
2023-03-17T03:58:16.564Z,7.28
2023-03-17T04:00:43.643Z,3.60
2023-03-17T04:03:10.775Z,3.80
2023-03-17T04:05:39.316Z,3.90
2023-03-17T04:08:07.026Z,3.10
2023-03-17T04:10:34.140Z,4.75
2023-03-17T04:13:01.369Z,5.32
2023-03-17T04:15:28.340Z,3.13
2023-03-17T04:17:55.467Z,5.07
2023-03-17T04:20:22.712Z,5.25
2023-03-17T04:22:51.443Z,4.07
2023-03-17T04:25:18.691Z,3.95
2023-03-17T04:27:45.844Z,7.18
2023-03-17T04:30:13.919Z,10.13
2023-03-17T04:32:41.887Z,10.25
2023-03-17T04:35:13.190Z,7.38
2023-03-17T04:37:40.540Z,17.63
2023-03-17T04:40:12.319Z,20.77
2023-03-17T04:42:39.915Z,13.18
2023-03-17T04:45:11.549Z,11.10
2023-03-17T04:47:39.543Z,12.20
2023-03-17T04:50:08.960Z,5.70
2023-03-17T04:52:36.472Z,5.57
2023-03-17T04:55:04.177Z,7.40
2023-03-17T04:57:32.541Z,4.93
2023-03-17T04:59:59.493Z,6.10
2023-03-17T05:02:26.501Z,7.50
2023-03-17T05:04:54.712Z,4.97
2023-03-17T05:07:21.720Z,11.48
2023-03-17T05:09:48.712Z,9.55
2023-03-17T05:12:16.011Z,8.45
2023-03-17T05:14:44.326Z,8.07
2023-03-17T05:17:11.526Z,9.82
2023-03-17T05:19:38.424Z,10.60
2023-03-17T05:22:05.825Z,9.48
2023-03-17T05:24:33.174Z,11.25
2023-03-17T05:27:00.113Z,12.93
2023-03-17T05:29:27.052Z,11.75
2023-03-17T05:31:55.580Z,12.30
2023-03-17T05:34:22.814Z,11.50
2023-03-17T05:36:50.495Z,14.38
2023-03-17T05:39:17.591Z,13.02
2023-03-17T05:41:44.497Z,13.40
2023-03-17T05:44:14.585Z,13.23
2023-03-17T05:46:42.117Z,14.50
2023-03-17T05:49:10.402Z,12.10
2023-03-17T05:51:37.330Z,13.63
2023-03-17T05:54:04.500Z,13.10
2023-03-17T05:56:33.837Z,15.65
2023-03-17T05:59:01.858Z,15.75
2023-03-17T06:01:31.502Z,14.57
2023-03-17T06:03:58.545Z,15.38
2023-03-17T06:06:27.058Z,14.57
2023-03-17T06:08:55.605Z,15.70
2023-03-17T06:11:22.613Z,13.30
2023-03-17T06:13:49.592Z,15.30
2023-03-17T06:16:16.730Z,13.90
2023-03-17T06:18:44.630Z,20.35
2023-03-17T06:21:11.718Z,16.65
2023-03-17T06:23:40.384Z,17.55
2023-03-17T06:26:07.471Z,15.88
2023-03-17T06:28:34.460Z,17.10
2023-03-17T06:31:01.555Z,17.05
2023-03-17T06:33:28.680Z,15.68
2023-03-17T06:35:56.228Z,16.08
2023-03-17T06:38:23.282Z,20.33
2023-03-17T06:40:51.735Z,16.48
2023-03-17T06:43:19.679Z,18.40
2023-03-17T06:45:47.387Z,22.20
2023-03-17T06:48:14.431Z,15.27
2023-03-17T06:50:41.572Z,18.33
2023-03-17T06:53:08.725Z,18.23
2023-03-17T06:55:35.697Z,16.95
2023-03-17T06:58:04.075Z,21.17
2023-03-17T07:00:31.121Z,16.15
2023-03-17T07:02:58.609Z,18.73
2023-03-17T07:05:28.214Z,17.60
2023-03-17T07:07:55.764Z,13.77
2023-03-17T07:10:23.440Z,12.82
2023-03-17T07:12:50.439Z,15.20
2023-03-17T07:15:18.948Z,12.75
2023-03-17T07:17:47.017Z,12.52
2023-03-17T07:20:17.147Z,9.32
2023-03-17T07:22:44.107Z,9.43
2023-03-17T07:25:11.161Z,6.68
2023-03-17T07:27:38.393Z,7.60
2023-03-17T07:30:06.700Z,10.70
2023-03-17T07:32:36.294Z,9.13
2023-03-17T07:35:04.888Z,9.77
2023-03-17T07:37:32.020Z,10.20
2023-03-17T07:39:58.994Z,6.68
2023-03-17T07:42:27.828Z,6.35
2023-03-17T07:44:55.235Z,11.15
2023-03-17T07:47:22.181Z,3.75
2023-03-17T07:49:50.491Z,6.78
2023-03-17T07:52:17.400Z,3.92
2023-03-17T07:54:44.735Z,6.57
2023-03-17T07:57:12.008Z,3.83
2023-03-17T07:59:40.057Z,5.13
2023-03-17T08:02:07.590Z,4.40
2023-03-17T08:04:35.752Z,9.80
2023-03-17T08:07:06.593Z,4.05
2023-03-17T08:09:33.676Z,4.10
2023-03-17T08:12:01.205Z,3.10
2023-03-17T08:14:28.112Z,4.28
2023-03-17T08:16:55.890Z,4.57
2023-03-17T08:19:23.322Z,5.90
2023-03-17T08:21:50.478Z,7.78
2023-03-17T08:24:20.719Z,5.88
2023-03-17T08:26:48.970Z,8.10
2023-03-17T08:29:16.260Z,2.78
2023-03-17T08:31:46.314Z,3.10
2023-03-17T08:34:13.537Z,6.00
2023-03-17T08:36:40.478Z,4.32
2023-03-17T08:39:07.761Z,4.00
2023-03-17T08:41:36.912Z,3.10
2023-03-17T08:44:03.914Z,9.10
2023-03-17T08:46:32.820Z,3.92
2023-03-17T08:49:01.830Z,4.35
2023-03-17T08:51:31.246Z,2.72
2023-03-17T08:53:58.788Z,3.83
2023-03-17T08:56:27.085Z,3.88
2023-03-17T08:58:56.872Z,6.30
2023-03-17T09:01:24.543Z,3.90
2023-03-17T09:03:52.840Z,3.90
2023-03-17T09:06:19.766Z,5.13
2023-03-17T09:08:47.612Z,2.10
2023-03-17T09:11:17.182Z,1.73
2023-03-17T09:13:46.452Z,8.32
2023-03-17T09:16:16.282Z,2.92
2023-03-17T09:18:43.551Z,6.22
2023-03-17T09:21:13.309Z,3.90
2023-03-17T09:23:41.423Z,6.82
2023-03-17T09:26:09.098Z,8.18
2023-03-17T09:28:36.349Z,3.00
2023-03-17T09:31:05.374Z,10.00
2023-03-17T09:33:33.749Z,4.38
2023-03-17T09:36:00.771Z,5.95
2023-03-17T09:38:28.287Z,2.45
2023-03-17T09:41:00.444Z,4.05
2023-03-17T09:43:34.056Z,3.80
2023-03-17T09:46:16.613Z,5.95
2023-03-17T09:48:54.508Z,3.58
2023-03-17T09:51:21.572Z,2.95
2023-03-17T09:53:54.592Z,6.80
2023-03-17T09:56:23.671Z,2.08
2023-03-17T09:58:54.062Z,7.78
2023-03-17T10:01:22.861Z,2.83
2023-03-17T10:03:51.582Z,5.07
2023-03-17T10:06:32.265Z,3.47
2023-03-17T10:09:05.288Z,2.13
2023-03-17T10:11:41.815Z,2.53
2023-03-17T10:14:23.615Z,6.75
2023-03-17T10:16:55.568Z,3.10
2023-03-17T10:19:28.421Z,6.47
2023-03-17T10:21:59.146Z,2.65
2023-03-17T10:24:29.812Z,4.20
2023-03-17T10:26:59.153Z,5.40
2023-03-17T10:29:26.339Z,6.70
2023-03-17T10:31:58.329Z,4.43
2023-03-17T10:34:29.442Z,4.38
2023-03-17T10:37:01.380Z,3.95
2023-03-17T10:39:32.437Z,5.68
2023-03-17T10:42:09.045Z,3.58
2023-03-17T10:44:42.148Z,5.57
2023-03-17T10:47:29.812Z,2.70
2023-03-17T10:50:02.592Z,3.13
2023-03-17T10:52:33.182Z,3.25
2023-03-17T10:55:06.061Z,7.63
2023-03-17T10:57:37.569Z,3.10
2023-03-17T11:00:14.639Z,3.50
2023-03-17T11:02:46.253Z,4.88
2023-03-17T11:05:21.643Z,7.63
2023-03-17T11:07:49.337Z,10.95
2023-03-17T11:10:20.338Z,7.63
2023-03-17T11:12:50.429Z,3.80
2023-03-17T11:15:20.100Z,1.55
2023-03-17T11:17:57.228Z,3.80
2023-03-17T11:20:40.168Z,4.55
2023-03-17T11:23:15.733Z,3.80
2023-03-17T11:25:46.085Z,6.63
2023-03-17T11:28:19.940Z,3.85
2023-03-17T11:30:58.641Z,3.95
2023-03-17T11:33:36.767Z,9.27
2023-03-17T11:36:13.136Z,3.70
2023-03-17T11:38:47.656Z,3.65
2023-03-17T11:41:31.234Z,8.70
2023-03-17T11:44:29.173Z,3.63
2023-03-17T11:47:03.182Z,6.10
2023-03-17T11:49:36.189Z,5.53
2023-03-17T11:52:11.361Z,2.97
2023-03-17T11:54:50.728Z,4.65
2023-03-17T11:57:23.863Z,3.95
2023-03-17T11:59:54.482Z,4.25
2023-03-17T12:02:28.774Z,3.53
2023-03-17T12:04:59.099Z,4.95
2023-03-17T12:07:33.212Z,3.13
2023-03-17T12:10:10.957Z,3.08
2023-03-17T12:12:43.001Z,3.95
2023-03-17T12:15:16.497Z,3.22
2023-03-17T12:17:52.294Z,8.18
2023-03-17T12:20:22.270Z,8.85
2023-03-17T12:22:57.104Z,8.73
2023-03-17T12:25:31.011Z,173.55
2023-03-17T12:28:03.935Z,32.53
2023-03-17T12:30:47.777Z,9.10
2023-03-17T12:33:22.079Z,8.38
2023-03-17T12:35:52.153Z,5.03
2023-03-17T12:38:25.639Z,15.27
2023-03-17T12:41:24.049Z,9.15
2023-03-17T12:44:05.748Z,170.13
2023-03-17T12:46:51.139Z,34.42
2023-03-17T12:49:53.814Z,59.30
2023-03-17T12:52:28.557Z,50.65
2023-03-17T12:55:02.030Z,12.45
2023-03-17T12:57:31.397Z,12.60
2023-03-17T13:00:05.601Z,21.05
2023-03-17T13:02:37.544Z,14.35
2023-03-17T13:05:09.258Z,13.43
2023-03-17T13:07:50.942Z,12.02
2023-03-17T13:10:40.013Z,10.38
2023-03-17T13:13:23.350Z,14.88
2023-03-17T13:15:57.371Z,8.20
2023-03-17T13:18:45.047Z,12.18
2023-03-17T13:21:15.261Z,10.70
2023-03-17T13:23:44.732Z,8.48
2023-03-17T13:26:14.361Z,7.70
2023-03-17T13:28:45.468Z,8.07
2023-03-17T13:31:31.726Z,13.68
2023-03-17T13:34:06.969Z,12.38
2023-03-17T13:36:44.622Z,14.93
2023-03-17T13:39:26.661Z,12.93
2023-03-17T13:42:18.783Z,13.43
2023-03-17T13:45:10.515Z,9.55
2023-03-17T13:47:39.987Z,6.88
2023-03-17T13:50:15.923Z,11.80
2023-03-17T13:52:48.203Z,16.17
2023-03-17T13:55:38.746Z,9.55
2023-03-17T13:58:33.313Z,10.07
2023-03-17T14:01:04.344Z,6.05
2023-03-17T14:03:40.063Z,9.20
2023-03-17T14:06:11.986Z,9.15
2023-03-17T14:08:44.704Z,16.13
2023-03-17T14:11:22.539Z,11.50
2023-03-17T14:13:56.688Z,9.18
2023-03-17T14:16:27.984Z,12.95
2023-03-17T14:19:00.669Z,9.38
2023-03-17T14:21:32.298Z,9.63
2023-03-17T14:24:00.955Z,12.10
2023-03-17T14:26:29.651Z,17.13
2023-03-17T14:29:01.574Z,8.13
2023-03-17T14:31:29.625Z,25.10
2023-03-17T14:33:58.634Z,10.55
2023-03-17T14:36:26.388Z,12.20
2023-03-17T14:38:54.540Z,10.48
2023-03-17T14:41:23.105Z,12.10
2023-03-17T14:43:52.216Z,10.32
2023-03-17T14:46:24.104Z,21.58
2023-03-17T14:48:56.713Z,16.90
2023-03-17T14:51:26.717Z,173.60
2023-03-17T14:53:56.882Z,398.55
2023-03-17T14:56:25.901Z,623.38
2023-03-17T14:58:53.426Z,228.82
2023-03-17T15:01:33.905Z,116.60
2023-03-17T15:04:08.244Z,37.92
2023-03-17T15:06:37.536Z,242.10
2023-03-17T15:09:17.915Z,102.38
2023-03-17T15:11:45.872Z,206.20
2023-03-17T15:14:21.135Z,230.90
2023-03-17T15:16:51.341Z,83.88
2023-03-17T15:19:22.906Z,66.05
2023-03-17T15:21:50.419Z,38.40
2023-03-17T15:24:34.161Z,28.75
2023-03-17T15:27:03.173Z,32.83
2023-03-17T15:29:30.381Z,34.72
2023-03-17T15:32:13.037Z,46.65
2023-03-17T15:34:40.433Z,30.50
2023-03-17T15:37:15.426Z,19.23
2023-03-17T15:39:42.400Z,22.30
2023-03-17T15:42:09.451Z,55.45
2023-03-17T15:44:36.366Z,45.55
2023-03-17T15:47:03.958Z,35.95
2023-03-17T15:49:32.405Z,23.33
2023-03-17T15:51:59.291Z,25.58
2023-03-17T15:54:26.284Z,22.27
2023-03-17T15:56:53.194Z,25.52
2023-03-17T15:59:20.896Z,14.50
2023-03-17T16:01:48.045Z,9.40
2023-03-17T16:04:15.694Z,10.20
2023-03-17T16:06:44.020Z,9.63
2023-03-17T16:09:17.683Z,9.65
2023-03-17T16:11:44.644Z,9.93
2023-03-17T16:14:11.850Z,8.68
2023-03-17T16:16:41.382Z,13.55
2023-03-17T16:19:14.730Z,12.98
2023-03-17T16:21:43.339Z,10.95
2023-03-17T16:24:18.754Z,14.55
2023-03-17T16:26:46.368Z,14.70
2023-03-17T16:29:15.005Z,16.52
2023-03-17T16:31:44.071Z,15.15
2023-03-17T16:34:16.139Z,50.05
2023-03-17T16:36:44.748Z,35.28
2023-03-17T16:39:16.894Z,21.65
2023-03-17T16:41:48.785Z,17.08
2023-03-17T16:44:18.402Z,152.93
2023-03-17T16:46:45.698Z,104.30
2023-03-17T16:49:14.704Z,31.27
2023-03-17T16:51:42.042Z,243.95
2023-03-17T16:54:10.770Z,216.77
2023-03-17T16:56:38.662Z,371.30
2023-03-17T16:59:07.839Z,259.25
2023-03-17T17:01:37.290Z,291.45
2023-03-17T17:04:09.207Z,122.28
2023-03-17T17:06:36.122Z,21.90
2023-03-17T17:09:03.374Z,20.90
2023-03-17T17:11:31.773Z,17.30
2023-03-17T17:13:59.871Z,21.20
2023-03-17T17:16:29.258Z,15.45
2023-03-17T17:18:57.385Z,363.90
2023-03-17T17:21:24.581Z,25.00
2023-03-17T17:23:53.155Z,85.45
2023-03-17T17:26:23.501Z,17.27
2023-03-17T17:28:51.798Z,17.25
2023-03-17T17:31:18.907Z,55.20
2023-03-17T17:33:45.987Z,58.40
2023-03-17T17:36:15.072Z,47.47
2023-03-17T17:38:42.555Z,45.88
2023-03-17T17:41:10.801Z,15.82
2023-03-17T17:43:38.023Z,18.38
2023-03-17T17:46:10.708Z,13.40
2023-03-17T17:48:37.653Z,14.57
2023-03-17T17:51:04.675Z,17.38
2023-03-17T17:53:31.780Z,20.27
2023-03-17T17:55:59.084Z,39.13
2023-03-17T17:58:26.621Z,108.00
2023-03-17T18:00:57.040Z,54.67
2023-03-17T18:03:26.583Z,19.60
2023-03-17T18:05:53.966Z,15.80
2023-03-17T18:08:21.803Z,16.65
2023-03-17T18:10:51.412Z,29.00
2023-03-17T18:13:19.038Z,26.50
2023-03-17T18:15:46.083Z,20.67
2023-03-17T18:18:13.072Z,31.60
2023-03-17T18:20:41.507Z,18.60
2023-03-17T18:23:08.648Z,17.95
2023-03-17T18:25:37.102Z,40.40
2023-03-17T18:28:04.464Z,13.13
2023-03-17T18:30:34.771Z,19.08
2023-03-17T18:33:06.578Z,15.20
2023-03-17T18:35:37.640Z,17.58
2023-03-17T18:38:06.089Z,17.17
2023-03-17T18:40:33.664Z,15.07
2023-03-17T18:43:01.138Z,12.43
2023-03-17T18:45:28.974Z,14.45
2023-03-17T18:47:55.972Z,18.30
2023-03-17T18:50:23.273Z,16.90
2023-03-17T18:52:50.562Z,14.63
2023-03-17T18:55:19.023Z,16.30
2023-03-17T18:57:47.043Z,15.27
2023-03-17T19:00:16.516Z,17.70
2023-03-17T19:02:43.536Z,15.93
2023-03-17T19:05:11.561Z,15.85
2023-03-17T19:07:40.335Z,17.15
2023-03-17T19:10:08.783Z,19.10
2023-03-17T19:12:37.641Z,14.18
2023-03-17T19:15:07.728Z,16.38
2023-03-17T19:17:34.923Z,17.55
2023-03-17T19:20:02.058Z,16.85
2023-03-17T19:22:29.014Z,16.02
2023-03-17T19:24:56.021Z,17.90
2023-03-17T19:27:23.149Z,18.98
2023-03-17T19:29:51.556Z,40.17
2023-03-17T19:32:18.581Z,22.85
2023-03-17T19:34:47.724Z,18.08
2023-03-17T19:37:14.745Z,21.02
2023-03-17T19:39:44.396Z,22.15
2023-03-17T19:42:12.472Z,20.15
2023-03-17T19:44:40.002Z,26.33
2023-03-17T19:47:08.505Z,23.85
2023-03-17T19:49:35.959Z,26.77
2023-03-17T19:52:03.331Z,19.52
2023-03-17T19:54:30.732Z,22.40
2023-03-17T19:56:57.796Z,24.58
2023-03-17T19:59:24.747Z,22.50
2023-03-17T20:01:52.453Z,23.38
2023-03-17T20:04:22.361Z,27.80
2023-03-17T20:06:55.049Z,25.75
2023-03-17T20:09:22.368Z,19.75
2023-03-17T20:11:49.581Z,25.63
2023-03-17T20:14:16.566Z,22.23
2023-03-17T20:16:43.516Z,24.88
2023-03-17T20:19:10.894Z,22.85
2023-03-17T20:21:39.297Z,20.20
2023-03-17T20:24:06.991Z,24.10
2023-03-17T20:26:34.517Z,24.33
2023-03-17T20:29:02.090Z,19.85
2023-03-17T20:31:29.229Z,22.85
2023-03-17T20:33:56.762Z,24.70
2023-03-17T20:36:24.279Z,24.65
2023-03-17T20:38:53.085Z,22.42
2023-03-17T20:41:21.008Z,23.58
2023-03-17T20:43:48.219Z,20.05
2023-03-17T20:46:17.782Z,22.08
2023-03-17T20:48:47.826Z,22.05
2023-03-17T20:51:16.483Z,18.15
2023-03-17T20:53:44.602Z,19.17
2023-03-17T20:56:15.692Z,17.90
2023-03-17T20:58:42.784Z,15.82
2023-03-17T21:01:12.830Z,20.02
2023-03-17T21:03:40.063Z,16.63
2023-03-17T21:06:07.448Z,19.17
2023-03-17T21:08:34.780Z,17.50
2023-03-17T21:11:02.450Z,20.35
2023-03-17T21:13:32.226Z,18.38
2023-03-17T21:16:00.782Z,17.25
2023-03-17T21:18:28.078Z,16.48
2023-03-17T21:20:55.539Z,21.13
2023-03-17T21:23:23.188Z,19.17
2023-03-17T21:25:55.254Z,19.70
2023-03-17T21:28:23.391Z,21.42
2023-03-17T21:30:51.827Z,17.60
2023-03-17T21:33:18.818Z,18.52
2023-03-17T21:35:45.837Z,16.17
2023-03-17T21:38:12.798Z,17.08
2023-03-17T21:40:39.763Z,17.20
2023-03-17T21:43:06.652Z,15.50
2023-03-17T21:45:33.591Z,17.08
2023-03-17T21:48:01.997Z,17.55
2023-03-17T21:50:29.822Z,20.40
2023-03-17T21:52:57.488Z,20.15
2023-03-17T21:55:24.396Z,15.80
2023-03-17T21:57:51.320Z,20.38
2023-03-17T22:00:19.432Z,20.80
2023-03-17T22:02:46.699Z,20.05
2023-03-17T22:05:16.330Z,19.90
2023-03-17T22:07:43.807Z,17.75
2023-03-17T22:10:11.800Z,19.27
2023-03-17T22:12:39.301Z,21.38
2023-03-17T22:15:08.920Z,17.25
2023-03-17T22:17:36.414Z,21.63
2023-03-17T22:20:06.835Z,31.45
2023-03-17T22:22:35.860Z,18.67
2023-03-17T22:25:05.618Z,20.17
2023-03-17T22:27:33.521Z,21.67
2023-03-17T22:30:00.965Z,23.38
2023-03-17T22:32:28.161Z,24.02
2023-03-17T22:34:55.239Z,24.35
2023-03-17T22:37:22.220Z,23.42
2023-03-17T22:39:50.618Z,27.58
2023-03-17T22:42:17.643Z,23.52
2023-03-17T22:44:44.683Z,24.98
2023-03-17T22:47:11.976Z,31.33
2023-03-17T22:49:38.888Z,27.05
2023-03-17T22:52:06.491Z,27.38
2023-03-17T22:54:33.467Z,30.50
2023-03-17T22:57:03.115Z,31.35
2023-03-17T22:59:30.869Z,28.10
2023-03-17T23:01:57.850Z,34.55
2023-03-17T23:04:25.677Z,33.95
2023-03-17T23:06:53.008Z,35.92
2023-03-17T23:09:20.184Z,34.55
2023-03-17T23:11:47.756Z,35.25
2023-03-17T23:14:16.499Z,34.75
2023-03-17T23:16:44.875Z,35.38
2023-03-17T23:19:12.147Z,35.58
2023-03-17T23:21:39.656Z,35.03
2023-03-17T23:24:08.606Z,34.97
2023-03-17T23:26:36.988Z,30.40
2023-03-17T23:29:04.460Z,32.33
2023-03-17T23:31:34.064Z,35.10
2023-03-17T23:34:01.055Z,32.65
2023-03-17T23:36:28.019Z,26.95
2023-03-17T23:38:55.075Z,76.07
2023-03-17T23:41:22.734Z,208.60
2023-03-17T23:43:50.018Z,103.50
2023-03-17T23:46:17.318Z,76.80
2023-03-17T23:48:45.737Z,35.75
2023-03-17T23:51:12.989Z,31.48
2023-03-17T23:53:40.103Z,31.27
2023-03-17T23:56:07.356Z,45.00
2023-03-17T23:58:34.345Z,58.88
